7W4

Lake Anna Airport

Bumpass, Virginia, USA
METAR K7W4 251635Z AUTO 22003KT 10SM SCT011 SCT021 SCT055 26/23 A3022 RMK AO1 T02550230
Observed Flight Rules
Sep-25 @ 16:35 UTC (32 minutes ago) Visual Flight Rules
Wind Visibility Clouds
220° at 3 knots 10 miles
  • Scattered at 1,100' AGL
  • Scattered at 2,100' AGL
  • Scattered at 5,500' AGL
Temperatures Readings
Current 26°C / 79°F
Dewpoint 23°C / 73°F
Humidity 84%
Altimeter 30.22" Hg
Pressure 1023 hPa
Elevation 106
METAR K7W4 251635Z AUTO 22003KT 10SM SCT011 SCT021 SCT055 26/23 A3022 RMK AO1 T02550230
Observed Flight Rules
Sep-25 @ 16:35 UTC
(32 minutes ago)
VFR
Wind Visibility
220° at 3 knots 10 miles
Clouds
  • Scattered at 1,100' AGL
  • Scattered at 2,100' AGL
  • Scattered at 5,500' AGL
Temperature Dewpoint
26°C / 79°F 23°C / 73°F
Humidity Altimeter Pressure
84% 30.22" Hg 1023 hPa